sensor_id;sensor_type;location;lat;lon;timestamp;P1;durP1;ratioP1;P2;durP2;ratioP2
20449;SDS011;10384;51.940;8.432;2024-01-30T00:01:22;15.20;;;6.80;;
20449;SDS011;10384;51.940;8.432;2024-01-30T00:03:48;12.33;;;6.10;;
20449;SDS011;10384;51.940;8.432;2024-01-30T00:06:18;12.67;;;6.67;;
20449;SDS011;10384;51.940;8.432;2024-01-30T00:08:45;11.17;;;6.10;;
20449;SDS011;10384;51.940;8.432;2024-01-30T00:11:13;13.53;;;6.70;;
20449;SDS011;10384;51.940;8.432;2024-01-30T00:13:40;15.57;;;7.43;;
20449;SDS011;10384;51.940;8.432;2024-01-30T00:16:06;12.30;;;6.27;;
20449;SDS011;10384;51.940;8.432;2024-01-30T00:18:32;14.03;;;6.37;;
20449;SDS011;10384;51.940;8.432;2024-01-30T00:20:58;13.03;;;6.87;;
20449;SDS011;10384;51.940;8.432;2024-01-30T00:23:24;11.10;;;6.13;;
20449;SDS011;10384;51.940;8.432;2024-01-30T00:25:50;17.73;;;7.00;;
20449;SDS011;10384;51.940;8.432;2024-01-30T00:28:16;18.40;;;6.80;;
20449;SDS011;10384;51.940;8.432;2024-01-30T00:30:42;13.77;;;6.87;;
20449;SDS011;10384;51.940;8.432;2024-01-30T00:33:09;15.53;;;6.67;;
20449;SDS011;10384;51.940;8.432;2024-01-30T00:35:35;13.37;;;7.00;;
20449;SDS011;10384;51.940;8.432;2024-01-30T00:38:01;17.87;;;7.30;;
20449;SDS011;10384;51.940;8.432;2024-01-30T00:40:27;17.23;;;7.30;;
20449;SDS011;10384;51.940;8.432;2024-01-30T00:42:53;16.27;;;7.20;;
20449;SDS011;10384;51.940;8.432;2024-01-30T00:45:19;18.50;;;8.13;;
20449;SDS011;10384;51.940;8.432;2024-01-30T00:47:45;16.33;;;7.83;;
20449;SDS011;10384;51.940;8.432;2024-01-30T00:50:11;19.77;;;8.23;;
20449;SDS011;10384;51.940;8.432;2024-01-30T00:52:37;17.33;;;7.70;;
20449;SDS011;10384;51.940;8.432;2024-01-30T00:55:04;17.37;;;7.63;;
20449;SDS011;10384;51.940;8.432;2024-01-30T00:57:30;17.30;;;7.57;;
20449;SDS011;10384;51.940;8.432;2024-01-30T00:59:56;16.70;;;7.17;;
20449;SDS011;10384;51.940;8.432;2024-01-30T01:02:22;16.00;;;7.63;;
20449;SDS011;10384;51.940;8.432;2024-01-30T01:04:48;15.50;;;6.87;;
20449;SDS011;10384;51.940;8.432;2024-01-30T01:07:15;16.90;;;6.60;;
20449;SDS011;10384;51.940;8.432;2024-01-30T01:09:41;14.40;;;6.77;;
20449;SDS011;10384;51.940;8.432;2024-01-30T01:12:06;13.37;;;6.60;;
20449;SDS011;10384;51.940;8.432;2024-01-30T01:14:32;11.77;;;6.37;;
20449;SDS011;10384;51.940;8.432;2024-01-30T01:16:58;12.63;;;6.13;;
20449;SDS011;10384;51.940;8.432;2024-01-30T01:19:24;13.83;;;7.03;;
20449;SDS011;10384;51.940;8.432;2024-01-30T01:21:50;12.40;;;6.47;;
20449;SDS011;10384;51.940;8.432;2024-01-30T01:24:17;12.33;;;6.83;;
20449;SDS011;10384;51.940;8.432;2024-01-30T01:26:43;11.20;;;6.33;;
20449;SDS011;10384;51.940;8.432;2024-01-30T01:29:09;14.30;;;7.50;;
20449;SDS011;10384;51.940;8.432;2024-01-30T01:31:37;11.53;;;6.67;;
20449;SDS011;10384;51.940;8.432;2024-01-30T01:34:12;14.73;;;6.53;;
20449;SDS011;10384;51.940;8.432;2024-01-30T01:36:38;16.23;;;6.57;;
20449;SDS011;10384;51.940;8.432;2024-01-30T01:39:04;13.93;;;6.10;;
20449;SDS011;10384;51.940;8.432;2024-01-30T01:41:31;13.57;;;6.63;;
20449;SDS011;10384;51.940;8.432;2024-01-30T01:43:57;12.27;;;6.40;;
20449;SDS011;10384;51.940;8.432;2024-01-30T01:46:23;17.13;;;7.10;;
20449;SDS011;10384;51.940;8.432;2024-01-30T01:48:49;11.13;;;5.80;;
20449;SDS011;10384;51.940;8.432;2024-01-30T01:51:15;12.90;;;6.30;;
20449;SDS011;10384;51.940;8.432;2024-01-30T01:53:41;16.37;;;7.03;;
20449;SDS011;10384;51.940;8.432;2024-01-30T01:56:07;15.80;;;7.10;;
20449;SDS011;10384;51.940;8.432;2024-01-30T01:58:34;16.00;;;7.07;;
20449;SDS011;10384;51.940;8.432;2024-01-30T02:01:00;14.57;;;6.27;;
20449;SDS011;10384;51.940;8.432;2024-01-30T02:03:28;12.70;;;6.23;;
20449;SDS011;10384;51.940;8.432;2024-01-30T02:05:54;13.13;;;7.00;;
20449;SDS011;10384;51.940;8.432;2024-01-30T02:08:20;13.00;;;6.27;;
20449;SDS011;10384;51.940;8.432;2024-01-30T02:10:46;15.00;;;7.00;;
20449;SDS011;10384;51.940;8.432;2024-01-30T02:13:12;11.90;;;6.30;;
20449;SDS011;10384;51.940;8.432;2024-01-30T02:15:38;16.73;;;6.50;;
20449;SDS011;10384;51.940;8.432;2024-01-30T02:18:04;12.67;;;6.97;;
20449;SDS011;10384;51.940;8.432;2024-01-30T02:20:30;13.23;;;6.90;;
20449;SDS011;10384;51.940;8.432;2024-01-30T02:22:57;14.70;;;6.83;;
20449;SDS011;10384;51.940;8.432;2024-01-30T02:25:39;12.33;;;6.30;;
20449;SDS011;10384;51.940;8.432;2024-01-30T02:28:11;14.50;;;6.63;;
20449;SDS011;10384;51.940;8.432;2024-01-30T02:30:42;13.87;;;6.60;;
20449;SDS011;10384;51.940;8.432;2024-01-30T02:33:08;15.00;;;6.87;;
20449;SDS011;10384;51.940;8.432;2024-01-30T02:35:34;17.70;;;6.77;;
20449;SDS011;10384;51.940;8.432;2024-01-30T02:38:01;14.97;;;6.13;;
20449;SDS011;10384;51.940;8.432;2024-01-30T02:40:27;14.87;;;6.70;;
20449;SDS011;10384;51.940;8.432;2024-01-30T02:42:52;14.83;;;7.13;;
20449;SDS011;10384;51.940;8.432;2024-01-30T02:45:18;16.17;;;6.23;;
20449;SDS011;10384;51.940;8.432;2024-01-30T02:47:45;12.90;;;6.73;;
20449;SDS011;10384;51.940;8.432;2024-01-30T02:50:11;13.10;;;6.00;;
20449;SDS011;10384;51.940;8.432;2024-01-30T02:52:37;14.57;;;6.40;;
20449;SDS011;10384;51.940;8.432;2024-01-30T02:55:03;11.30;;;5.97;;
20449;SDS011;10384;51.940;8.432;2024-01-30T02:57:29;13.70;;;6.60;;
20449;SDS011;10384;51.940;8.432;2024-01-30T02:59:55;16.47;;;6.73;;
20449;SDS011;10384;51.940;8.432;2024-01-30T03:02:21;11.83;;;6.23;;
20449;SDS011;10384;51.940;8.432;2024-01-30T03:04:47;12.03;;;6.13;;
20449;SDS011;10384;51.940;8.432;2024-01-30T03:07:13;12.43;;;5.83;;
20449;SDS011;10384;51.940;8.432;2024-01-30T03:09:41;12.97;;;6.80;;
20449;SDS011;10384;51.940;8.432;2024-01-30T03:12:08;12.97;;;6.67;;
20449;SDS011;10384;51.940;8.432;2024-01-30T03:14:35;17.30;;;6.67;;
20449;SDS011;10384;51.940;8.432;2024-01-30T03:17:01;18.57;;;7.30;;
20449;SDS011;10384;51.940;8.432;2024-01-30T03:19:27;13.00;;;6.33;;
20449;SDS011;10384;51.940;8.432;2024-01-30T03:21:53;16.63;;;6.80;;
20449;SDS011;10384;51.940;8.432;2024-01-30T03:24:19;13.33;;;6.23;;
20449;SDS011;10384;51.940;8.432;2024-01-30T03:26:45;13.90;;;6.63;;
20449;SDS011;10384;51.940;8.432;2024-01-30T03:29:11;12.40;;;6.40;;
20449;SDS011;10384;51.940;8.432;2024-01-30T03:31:38;16.27;;;6.80;;
20449;SDS011;10384;51.940;8.432;2024-01-30T03:34:04;11.90;;;6.60;;
20449;SDS011;10384;51.940;8.432;2024-01-30T03:36:30;13.30;;;5.90;;
20449;SDS011;10384;51.940;8.432;2024-01-30T03:38:58;12.67;;;6.37;;
20449;SDS011;10384;51.940;8.432;2024-01-30T03:41:24;13.10;;;6.53;;
20449;SDS011;10384;51.940;8.432;2024-01-30T03:43:50;13.33;;;6.57;;
20449;SDS011;10384;51.940;8.432;2024-01-30T03:46:16;15.03;;;5.87;;
20449;SDS011;10384;51.940;8.432;2024-01-30T03:48:42;14.37;;;6.13;;
20449;SDS011;10384;51.940;8.432;2024-01-30T03:51:08;14.83;;;6.73;;
20449;SDS011;10384;51.940;8.432;2024-01-30T03:53:39;13.60;;;6.07;;
20449;SDS011;10384;51.940;8.432;2024-01-30T03:56:06;13.30;;;6.17;;
20449;SDS011;10384;51.940;8.432;2024-01-30T03:58:32;15.80;;;7.40;;
20449;SDS011;10384;51.940;8.432;2024-01-30T04:00:58;14.07;;;6.77;;
20449;SDS011;10384;51.940;8.432;2024-01-30T04:03:24;14.87;;;7.03;;
20449;SDS011;10384;51.940;8.432;2024-01-30T04:05:51;13.90;;;6.70;;
20449;SDS011;10384;51.940;8.432;2024-01-30T04:08:17;17.77;;;7.57;;
20449;SDS011;10384;51.940;8.432;2024-01-30T04:10:43;14.03;;;6.73;;
20449;SDS011;10384;51.940;8.432;2024-01-30T04:13:09;16.17;;;6.67;;
20449;SDS011;10384;51.940;8.432;2024-01-30T04:15:35;13.33;;;6.40;;
20449;SDS011;10384;51.940;8.432;2024-01-30T04:18:02;12.37;;;6.43;;
20449;SDS011;10384;51.940;8.432;2024-01-30T04:20:28;14.77;;;6.23;;
20449;SDS011;10384;51.940;8.432;2024-01-30T04:22:54;13.60;;;6.70;;
20449;SDS011;10384;51.940;8.432;2024-01-30T04:25:20;16.93;;;7.23;;
20449;SDS011;10384;51.940;8.432;2024-01-30T04:27:46;16.00;;;7.10;;
20449;SDS011;10384;51.940;8.432;2024-01-30T04:30:13;15.70;;;7.13;;
20449;SDS011;10384;51.940;8.432;2024-01-30T04:32:39;15.30;;;7.20;;
20449;SDS011;10384;51.940;8.432;2024-01-30T04:35:05;20.07;;;7.90;;
20449;SDS011;10384;51.940;8.432;2024-01-30T04:37:31;14.40;;;6.30;;
20449;SDS011;10384;51.940;8.432;2024-01-30T04:39:57;15.67;;;7.60;;
20449;SDS011;10384;51.940;8.432;2024-01-30T04:42:23;15.47;;;7.13;;
20449;SDS011;10384;51.940;8.432;2024-01-30T04:44:49;15.27;;;6.83;;
20449;SDS011;10384;51.940;8.432;2024-01-30T04:47:15;16.97;;;7.27;;
20449;SDS011;10384;51.940;8.432;2024-01-30T04:49:41;16.57;;;6.93;;
20449;SDS011;10384;51.940;8.432;2024-01-30T04:52:08;12.77;;;6.47;;
20449;SDS011;10384;51.940;8.432;2024-01-30T04:54:34;12.20;;;6.00;;
20449;SDS011;10384;51.940;8.432;2024-01-30T04:57:01;13.73;;;6.33;;
20449;SDS011;10384;51.940;8.432;2024-01-30T04:59:27;15.30;;;6.97;;
20449;SDS011;10384;51.940;8.432;2024-01-30T05:01:53;14.70;;;6.50;;
20449;SDS011;10384;51.940;8.432;2024-01-30T05:04:19;12.47;;;6.43;;
20449;SDS011;10384;51.940;8.432;2024-01-30T05:06:47;13.17;;;6.90;;
20449;SDS011;10384;51.940;8.432;2024-01-30T05:09:13;14.50;;;6.70;;
20449;SDS011;10384;51.940;8.432;2024-01-30T05:11:39;19.07;;;7.47;;
20449;SDS011;10384;51.940;8.432;2024-01-30T05:14:05;14.87;;;6.97;;
20449;SDS011;10384;51.940;8.432;2024-01-30T05:16:32;13.73;;;7.07;;
20449;SDS011;10384;51.940;8.432;2024-01-30T05:18:58;16.53;;;6.90;;
20449;SDS011;10384;51.940;8.432;2024-01-30T05:21:24;12.53;;;6.77;;
20449;SDS011;10384;51.940;8.432;2024-01-30T05:23:50;15.20;;;7.33;;
20449;SDS011;10384;51.940;8.432;2024-01-30T05:26:16;13.63;;;6.40;;
20449;SDS011;10384;51.940;8.432;2024-01-30T05:28:43;16.00;;;6.63;;
20449;SDS011;10384;51.940;8.432;2024-01-30T05:31:11;17.83;;;7.43;;
20449;SDS011;10384;51.940;8.432;2024-01-30T05:33:37;15.90;;;7.17;;
20449;SDS011;10384;51.940;8.432;2024-01-30T05:36:04;22.87;;;7.33;;
20449;SDS011;10384;51.940;8.432;2024-01-30T05:38:30;20.40;;;7.53;;
20449;SDS011;10384;51.940;8.432;2024-01-30T05:40:57;15.70;;;7.00;;
20449;SDS011;10384;51.940;8.432;2024-01-30T05:43:23;13.03;;;6.83;;
20449;SDS011;10384;51.940;8.432;2024-01-30T05:45:49;16.10;;;6.53;;
20449;SDS011;10384;51.940;8.432;2024-01-30T05:48:15;18.67;;;7.20;;
20449;SDS011;10384;51.940;8.432;2024-01-30T05:50:41;15.40;;;6.90;;
20449;SDS011;10384;51.940;8.432;2024-01-30T05:53:07;20.17;;;7.63;;
20449;SDS011;10384;51.940;8.432;2024-01-30T05:55:33;14.67;;;6.73;;
20449;SDS011;10384;51.940;8.432;2024-01-30T05:57:59;18.07;;;7.13;;
20449;SDS011;10384;51.940;8.432;2024-01-30T06:00:26;19.80;;;7.50;;
20449;SDS011;10384;51.940;8.432;2024-01-30T06:02:52;14.73;;;7.00;;
20449;SDS011;10384;51.940;8.432;2024-01-30T06:05:18;14.20;;;7.30;;
20449;SDS011;10384;51.940;8.432;2024-01-30T06:07:44;17.40;;;7.27;;
20449;SDS011;10384;51.940;8.432;2024-01-30T06:10:10;14.73;;;7.27;;
20449;SDS011;10384;51.940;8.432;2024-01-30T06:12:37;21.27;;;7.50;;
20449;SDS011;10384;51.940;8.432;2024-01-30T06:15:03;14.03;;;7.50;;
20449;SDS011;10384;51.940;8.432;2024-01-30T06:17:29;17.87;;;7.43;;
20449;SDS011;10384;51.940;8.432;2024-01-30T06:19:55;14.73;;;6.43;;
20449;SDS011;10384;51.940;8.432;2024-01-30T06:22:21;15.33;;;7.10;;
20449;SDS011;10384;51.940;8.432;2024-01-30T06:24:47;15.23;;;6.97;;
20449;SDS011;10384;51.940;8.432;2024-01-30T06:27:14;17.70;;;6.70;;
20449;SDS011;10384;51.940;8.432;2024-01-30T06:29:40;16.40;;;7.60;;
20449;SDS011;10384;51.940;8.432;2024-01-30T06:32:06;17.77;;;7.03;;
20449;SDS011;10384;51.940;8.432;2024-01-30T06:34:32;16.40;;;7.27;;
20449;SDS011;10384;51.940;8.432;2024-01-30T06:36:58;13.87;;;6.27;;
20449;SDS011;10384;51.940;8.432;2024-01-30T06:39:25;14.43;;;6.40;;
20449;SDS011;10384;51.940;8.432;2024-01-30T06:41:51;15.63;;;7.40;;
20449;SDS011;10384;51.940;8.432;2024-01-30T06:44:17;15.07;;;6.83;;
20449;SDS011;10384;51.940;8.432;2024-01-30T06:46:43;12.97;;;6.73;;
20449;SDS011;10384;51.940;8.432;2024-01-30T06:49:09;14.37;;;6.27;;
20449;SDS011;10384;51.940;8.432;2024-01-30T06:51:35;13.57;;;6.47;;
20449;SDS011;10384;51.940;8.432;2024-01-30T06:54:01;13.13;;;6.87;;
20449;SDS011;10384;51.940;8.432;2024-01-30T06:56:27;15.63;;;6.97;;
20449;SDS011;10384;51.940;8.432;2024-01-30T06:58:53;14.40;;;6.57;;
20449;SDS011;10384;51.940;8.432;2024-01-30T07:01:20;17.67;;;6.87;;
20449;SDS011;10384;51.940;8.432;2024-01-30T07:03:46;16.33;;;7.00;;
20449;SDS011;10384;51.940;8.432;2024-01-30T07:06:12;17.20;;;7.00;;
20449;SDS011;10384;51.940;8.432;2024-01-30T07:08:38;17.03;;;7.77;;
20449;SDS011;10384;51.940;8.432;2024-01-30T07:11:04;14.63;;;6.90;;
20449;SDS011;10384;51.940;8.432;2024-01-30T07:13:31;14.47;;;7.13;;
20449;SDS011;10384;51.940;8.432;2024-01-30T07:15:57;14.97;;;6.67;;
20449;SDS011;10384;51.940;8.432;2024-01-30T07:18:23;15.93;;;7.20;;
20449;SDS011;10384;51.940;8.432;2024-01-30T07:20:49;14.33;;;7.03;;
20449;SDS011;10384;51.940;8.432;2024-01-30T07:23:15;17.20;;;7.13;;
20449;SDS011;10384;51.940;8.432;2024-01-30T07:25:45;15.30;;;6.37;;
20449;SDS011;10384;51.940;8.432;2024-01-30T07:28:13;13.70;;;6.00;;
20449;SDS011;10384;51.940;8.432;2024-01-30T07:30:41;13.13;;;6.17;;
20449;SDS011;10384;51.940;8.432;2024-01-30T07:33:07;17.50;;;8.07;;
20449;SDS011;10384;51.940;8.432;2024-01-30T07:35:33;13.50;;;7.13;;
20449;SDS011;10384;51.940;8.432;2024-01-30T07:37:59;13.57;;;6.80;;
20449;SDS011;10384;51.940;8.432;2024-01-30T07:40:25;18.37;;;7.70;;
20449;SDS011;10384;51.940;8.432;2024-01-30T07:42:53;17.77;;;7.40;;
20449;SDS011;10384;51.940;8.432;2024-01-30T07:45:19;15.93;;;7.10;;
20449;SDS011;10384;51.940;8.432;2024-01-30T07:47:48;14.90;;;7.00;;
20449;SDS011;10384;51.940;8.432;2024-01-30T07:50:14;13.87;;;6.30;;
20449;SDS011;10384;51.940;8.432;2024-01-30T07:52:41;16.37;;;7.30;;
20449;SDS011;10384;51.940;8.432;2024-01-30T07:55:07;14.63;;;6.93;;
20449;SDS011;10384;51.940;8.432;2024-01-30T07:57:33;14.40;;;6.40;;
20449;SDS011;10384;51.940;8.432;2024-01-30T07:59:59;16.40;;;6.43;;
20449;SDS011;10384;51.940;8.432;2024-01-30T08:02:25;14.07;;;6.47;;
20449;SDS011;10384;51.940;8.432;2024-01-30T08:04:51;13.73;;;7.13;;
20449;SDS011;10384;51.940;8.432;2024-01-30T08:07:17;12.13;;;6.10;;
20449;SDS011;10384;51.940;8.432;2024-01-30T08:09:44;15.73;;;6.53;;
20449;SDS011;10384;51.940;8.432;2024-01-30T08:12:10;14.87;;;7.10;;
20449;SDS011;10384;51.940;8.432;2024-01-30T08:14:37;13.80;;;6.17;;
20449;SDS011;10384;51.940;8.432;2024-01-30T08:17:04;13.63;;;6.70;;
20449;SDS011;10384;51.940;8.432;2024-01-30T08:19:30;17.47;;;7.33;;
20449;SDS011;10384;51.940;8.432;2024-01-30T08:21:56;15.00;;;7.23;;
20449;SDS011;10384;51.940;8.432;2024-01-30T08:24:22;15.77;;;6.53;;
20449;SDS011;10384;51.940;8.432;2024-01-30T08:26:48;11.20;;;6.10;;
20449;SDS011;10384;51.940;8.432;2024-01-30T08:29:14;16.53;;;7.27;;
20449;SDS011;10384;51.940;8.432;2024-01-30T08:31:40;16.27;;;6.80;;
20449;SDS011;10384;51.940;8.432;2024-01-30T08:34:06;14.57;;;6.87;;
20449;SDS011;10384;51.940;8.432;2024-01-30T08:36:32;15.53;;;7.27;;
20449;SDS011;10384;51.940;8.432;2024-01-30T08:38:58;15.57;;;7.40;;
20449;SDS011;10384;51.940;8.432;2024-01-30T08:41:24;15.00;;;6.77;;
20449;SDS011;10384;51.940;8.432;2024-01-30T08:43:50;16.40;;;7.50;;
20449;SDS011;10384;51.940;8.432;2024-01-30T08:46:18;15.30;;;6.53;;
20449;SDS011;10384;51.940;8.432;2024-01-30T08:48:45;15.80;;;6.67;;
20449;SDS011;10384;51.940;8.432;2024-01-30T08:51:12;14.47;;;6.57;;
20449;SDS011;10384;51.940;8.432;2024-01-30T08:53:40;15.23;;;7.00;;
20449;SDS011;10384;51.940;8.432;2024-01-30T08:56:06;16.47;;;7.53;;
20449;SDS011;10384;51.940;8.432;2024-01-30T08:58:32;15.10;;;6.87;;
20449;SDS011;10384;51.940;8.432;2024-01-30T09:00:58;17.10;;;6.97;;
20449;SDS011;10384;51.940;8.432;2024-01-30T09:03:25;13.13;;;6.37;;
20449;SDS011;10384;51.940;8.432;2024-01-30T09:05:51;14.83;;;6.53;;
20449;SDS011;10384;51.940;8.432;2024-01-30T09:08:17;18.10;;;6.77;;
20449;SDS011;10384;51.940;8.432;2024-01-30T09:10:43;14.37;;;6.77;;
20449;SDS011;10384;51.940;8.432;2024-01-30T09:13:09;16.23;;;6.70;;
20449;SDS011;10384;51.940;8.432;2024-01-30T09:15:35;13.17;;;6.53;;
20449;SDS011;10384;51.940;8.432;2024-01-30T09:18:01;14.00;;;6.33;;
20449;SDS011;10384;51.940;8.432;2024-01-30T09:20:27;15.47;;;7.17;;
20449;SDS011;10384;51.940;8.432;2024-01-30T09:22:53;13.80;;;6.60;;
20449;SDS011;10384;51.940;8.432;2024-01-30T09:25:19;16.90;;;7.33;;
20449;SDS011;10384;51.940;8.432;2024-01-30T09:27:45;17.80;;;7.40;;
20449;SDS011;10384;51.940;8.432;2024-01-30T09:30:11;13.60;;;7.07;;
20449;SDS011;10384;51.940;8.432;2024-01-30T09:32:39;13.37;;;6.87;;
20449;SDS011;10384;51.940;8.432;2024-01-30T09:35:05;12.87;;;6.20;;
20449;SDS011;10384;51.940;8.432;2024-01-30T09:37:31;16.70;;;6.70;;
20449;SDS011;10384;51.940;8.432;2024-01-30T09:39:57;14.97;;;7.17;;
20449;SDS011;10384;51.940;8.432;2024-01-30T09:42:35;13.63;;;6.83;;
20449;SDS011;10384;51.940;8.432;2024-01-30T09:45:05;13.63;;;7.00;;
20449;SDS011;10384;51.940;8.432;2024-01-30T09:47:32;14.53;;;6.90;;
20449;SDS011;10384;51.940;8.432;2024-01-30T09:49:58;16.83;;;7.30;;
20449;SDS011;10384;51.940;8.432;2024-01-30T09:52:24;14.03;;;6.33;;
20449;SDS011;10384;51.940;8.432;2024-01-30T09:54:51;15.53;;;6.80;;
20449;SDS011;10384;51.940;8.432;2024-01-30T09:57:17;15.67;;;7.13;;
20449;SDS011;10384;51.940;8.432;2024-01-30T09:59:43;18.70;;;7.60;;
20449;SDS011;10384;51.940;8.432;2024-01-30T10:02:09;14.37;;;6.70;;
20449;SDS011;10384;51.940;8.432;2024-01-30T10:04:35;14.30;;;6.90;;
20449;SDS011;10384;51.940;8.432;2024-01-30T10:07:02;13.77;;;6.73;;
20449;SDS011;10384;51.940;8.432;2024-01-30T10:09:28;15.87;;;7.57;;
20449;SDS011;10384;51.940;8.432;2024-01-30T10:11:57;14.27;;;6.73;;
20449;SDS011;10384;51.940;8.432;2024-01-30T10:14:23;13.53;;;7.23;;
20449;SDS011;10384;51.940;8.432;2024-01-30T10:16:50;13.40;;;6.73;;
20449;SDS011;10384;51.940;8.432;2024-01-30T10:19:16;15.53;;;6.90;;
20449;SDS011;10384;51.940;8.432;2024-01-30T10:21:42;13.20;;;6.27;;
20449;SDS011;10384;51.940;8.432;2024-01-30T10:24:08;16.03;;;7.13;;
20449;SDS011;10384;51.940;8.432;2024-01-30T10:26:38;10.90;;;6.17;;
20449;SDS011;10384;51.940;8.432;2024-01-30T10:29:04;16.13;;;7.07;;
20449;SDS011;10384;51.940;8.432;2024-01-30T10:31:30;14.67;;;7.10;;
20449;SDS011;10384;51.940;8.432;2024-01-30T10:33:56;15.13;;;6.67;;
20449;SDS011;10384;51.940;8.432;2024-01-30T10:36:24;14.40;;;6.33;;
20449;SDS011;10384;51.940;8.432;2024-01-30T10:38:51;12.10;;;6.13;;
20449;SDS011;10384;51.940;8.432;2024-01-30T10:41:19;14.33;;;6.63;;
20449;SDS011;10384;51.940;8.432;2024-01-30T10:43:50;14.40;;;6.50;;
20449;SDS011;10384;51.940;8.432;2024-01-30T10:46:21;13.27;;;6.20;;
20449;SDS011;10384;51.940;8.432;2024-01-30T10:48:56;12.97;;;6.60;;
20449;SDS011;10384;51.940;8.432;2024-01-30T10:51:24;12.67;;;5.57;;
20449;SDS011;10384;51.940;8.432;2024-01-30T10:53:51;12.80;;;6.03;;
20449;SDS011;10384;51.940;8.432;2024-01-30T10:56:20;16.13;;;5.87;;
20449;SDS011;10384;51.940;8.432;2024-01-30T10:58:47;12.90;;;6.27;;
20449;SDS011;10384;51.940;8.432;2024-01-30T11:01:14;11.43;;;5.93;;
20449;SDS011;10384;51.940;8.432;2024-01-30T11:03:40;11.90;;;6.30;;
20449;SDS011;10384;51.940;8.432;2024-01-30T11:06:10;13.20;;;5.70;;
20449;SDS011;10384;51.940;8.432;2024-01-30T11:08:37;13.33;;;5.47;;
20449;SDS011;10384;51.940;8.432;2024-01-30T11:11:03;13.93;;;5.17;;
20449;SDS011;10384;51.940;8.432;2024-01-30T11:13:34;10.13;;;4.97;;
20449;SDS011;10384;51.940;8.432;2024-01-30T11:16:03;13.03;;;5.57;;
20449;SDS011;10384;51.940;8.432;2024-01-30T11:18:33;10.50;;;5.27;;
20449;SDS011;10384;51.940;8.432;2024-01-30T11:21:04;11.33;;;5.20;;
20449;SDS011;10384;51.940;8.432;2024-01-30T11:23:30;9.67;;;4.77;;
20449;SDS011;10384;51.940;8.432;2024-01-30T11:25:56;11.30;;;4.83;;
20449;SDS011;10384;51.940;8.432;2024-01-30T11:28:23;13.90;;;5.37;;
20449;SDS011;10384;51.940;8.432;2024-01-30T11:30:49;12.53;;;5.70;;
20449;SDS011;10384;51.940;8.432;2024-01-30T11:33:27;10.30;;;5.90;;
20449;SDS011;10384;51.940;8.432;2024-01-30T11:35:56;10.10;;;5.63;;
20449;SDS011;10384;51.940;8.432;2024-01-30T11:38:23;10.13;;;5.27;;
20449;SDS011;10384;51.940;8.432;2024-01-30T11:40:51;11.53;;;5.47;;
20449;SDS011;10384;51.940;8.432;2024-01-30T11:43:17;11.30;;;5.50;;
20449;SDS011;10384;51.940;8.432;2024-01-30T11:45:44;12.93;;;5.50;;
20449;SDS011;10384;51.940;8.432;2024-01-30T11:48:11;13.47;;;5.13;;
20449;SDS011;10384;51.940;8.432;2024-01-30T11:50:37;9.27;;;4.50;;
20449;SDS011;10384;51.940;8.432;2024-01-30T11:53:04;9.00;;;5.20;;
20449;SDS011;10384;51.940;8.432;2024-01-30T11:55:30;12.07;;;6.60;;
20449;SDS011;10384;51.940;8.432;2024-01-30T11:57:57;9.67;;;5.00;;
20449;SDS011;10384;51.940;8.432;2024-01-30T12:00:23;11.97;;;4.83;;
20449;SDS011;10384;51.940;8.432;2024-01-30T12:02:53;10.73;;;4.97;;
20449;SDS011;10384;51.940;8.432;2024-01-30T12:05:22;9.13;;;5.00;;
20449;SDS011;10384;51.940;8.432;2024-01-30T12:07:48;11.10;;;5.07;;
20449;SDS011;10384;51.940;8.432;2024-01-30T12:10:14;14.80;;;5.67;;
20449;SDS011;10384;51.940;8.432;2024-01-30T12:12:41;10.83;;;5.40;;
20449;SDS011;10384;51.940;8.432;2024-01-30T12:15:08;10.37;;;4.63;;
20449;SDS011;10384;51.940;8.432;2024-01-30T12:17:34;9.47;;;4.83;;
20449;SDS011;10384;51.940;8.432;2024-01-30T12:22:36;10.43;;;5.60;;
20449;SDS011;10384;51.940;8.432;2024-01-30T12:25:12;11.13;;;5.07;;
20449;SDS011;10384;51.940;8.432;2024-01-30T12:27:39;10.30;;;4.77;;
20449;SDS011;10384;51.940;8.432;2024-01-30T12:32:37;12.87;;;5.67;;
20449;SDS011;10384;51.940;8.432;2024-01-30T12:35:09;9.40;;;4.70;;
20449;SDS011;10384;51.940;8.432;2024-01-30T12:37:35;11.27;;;4.83;;
20449;SDS011;10384;51.940;8.432;2024-01-30T12:40:01;10.30;;;5.00;;
20449;SDS011;10384;51.940;8.432;2024-01-30T12:42:28;12.43;;;5.57;;
20449;SDS011;10384;51.940;8.432;2024-01-30T12:44:54;10.83;;;5.37;;
20449;SDS011;10384;51.940;8.432;2024-01-30T12:47:22;16.10;;;5.37;;
20449;SDS011;10384;51.940;8.432;2024-01-30T12:49:48;11.80;;;6.00;;
20449;SDS011;10384;51.940;8.432;2024-01-30T12:52:18;11.17;;;5.67;;
20449;SDS011;10384;51.940;8.432;2024-01-30T12:54:44;12.73;;;5.93;;
20449;SDS011;10384;51.940;8.432;2024-01-30T12:57:10;18.97;;;5.27;;
20449;SDS011;10384;51.940;8.432;2024-01-30T12:59:36;11.87;;;5.37;;
20449;SDS011;10384;51.940;8.432;2024-01-30T13:02:02;14.23;;;5.67;;
20449;SDS011;10384;51.940;8.432;2024-01-30T13:04:28;17.97;;;5.37;;
20449;SDS011;10384;51.940;8.432;2024-01-30T13:06:54;13.30;;;5.13;;
20449;SDS011;10384;51.940;8.432;2024-01-30T13:09:20;10.30;;;5.10;;
20449;SDS011;10384;51.940;8.432;2024-01-30T13:11:46;10.03;;;5.30;;
20449;SDS011;10384;51.940;8.432;2024-01-30T13:14:12;11.20;;;5.73;;
20449;SDS011;10384;51.940;8.432;2024-01-30T13:16:38;10.17;;;5.03;;
20449;SDS011;10384;51.940;8.432;2024-01-30T13:19:04;12.70;;;5.40;;
20449;SDS011;10384;51.940;8.432;2024-01-30T13:21:31;10.27;;;4.43;;
20449;SDS011;10384;51.940;8.432;2024-01-30T13:23:57;11.60;;;5.10;;
20449;SDS011;10384;51.940;8.432;2024-01-30T13:26:23;9.70;;;5.00;;
20449;SDS011;10384;51.940;8.432;2024-01-30T13:28:49;9.87;;;4.97;;
20449;SDS011;10384;51.940;8.432;2024-01-30T13:31:15;9.17;;;4.50;;
20449;SDS011;10384;51.940;8.432;2024-01-30T13:33:41;11.80;;;4.77;;
20449;SDS011;10384;51.940;8.432;2024-01-30T13:36:07;7.70;;;4.60;;
20449;SDS011;10384;51.940;8.432;2024-01-30T13:38:33;11.37;;;5.30;;
20449;SDS011;10384;51.940;8.432;2024-01-30T13:40:59;9.60;;;4.57;;
20449;SDS011;10384;51.940;8.432;2024-01-30T13:43:25;9.77;;;4.60;;
20449;SDS011;10384;51.940;8.432;2024-01-30T13:45:52;12.03;;;5.40;;
20449;SDS011;10384;51.940;8.432;2024-01-30T13:48:19;11.97;;;4.87;;
20449;SDS011;10384;51.940;8.432;2024-01-30T13:50:45;12.73;;;5.23;;
20449;SDS011;10384;51.940;8.432;2024-01-30T13:53:11;10.40;;;5.30;;
20449;SDS011;10384;51.940;8.432;2024-01-30T13:55:37;17.07;;;5.63;;
20449;SDS011;10384;51.940;8.432;2024-01-30T13:58:04;15.73;;;6.10;;
20449;SDS011;10384;51.940;8.432;2024-01-30T14:00:30;12.80;;;5.43;;
20449;SDS011;10384;51.940;8.432;2024-01-30T14:02:56;13.60;;;5.47;;
20449;SDS011;10384;51.940;8.432;2024-01-30T14:05:23;12.53;;;6.27;;
20449;SDS011;10384;51.940;8.432;2024-01-30T14:07:50;13.57;;;4.97;;
20449;SDS011;10384;51.940;8.432;2024-01-30T14:10:16;12.97;;;6.00;;
20449;SDS011;10384;51.940;8.432;2024-01-30T14:12:43;14.50;;;5.83;;
20449;SDS011;10384;51.940;8.432;2024-01-30T14:15:09;14.93;;;5.40;;
20449;SDS011;10384;51.940;8.432;2024-01-30T14:17:36;12.50;;;4.97;;
20449;SDS011;10384;51.940;8.432;2024-01-30T14:20:03;10.27;;;4.93;;
20449;SDS011;10384;51.940;8.432;2024-01-30T14:22:29;12.30;;;5.57;;
20449;SDS011;10384;51.940;8.432;2024-01-30T14:24:55;11.67;;;5.67;;
20449;SDS011;10384;51.940;8.432;2024-01-30T14:27:22;12.97;;;5.40;;
20449;SDS011;10384;51.940;8.432;2024-01-30T14:29:48;14.60;;;5.60;;
20449;SDS011;10384;51.940;8.432;2024-01-30T14:32:14;11.97;;;5.00;;
20449;SDS011;10384;51.940;8.432;2024-01-30T14:34:40;11.50;;;4.90;;
20449;SDS011;10384;51.940;8.432;2024-01-30T14:37:06;12.77;;;5.10;;